FAMM/MBD METAR and TAF weather

Enter ICAO airport designator
Station Type Date Time Source
FAMM METAR 2021/09/24 03:00 UTC NOAA

FAMM 240300Z 06008KT CAVOK 12/04 Q1021 NOSIG


Station Type Date Time Source
FAMM Decoded METAR 2021/09/24 03:00 UTC NOAA

Mafikeng Intl. Ad, South Africa (FAMM) 25-47S 025-32E 1300M
Sep 23, 2021 - 11:00 PM EDT / 2021.09.24 0300 UTC
Wind: from the ENE (060 degrees) at 9 MPH (8 KT):0
Visibility: greater than 7 mile(s):0
Temperature: 53 F (12 C)
Dew Point: 39 F (4 C)
Relative Humidity: 57%
Pressure (altimeter): 30.15 in. Hg (1021 hPa)
ob: FAMM 240300Z 06008KT CAVOK 12/04 Q1021 NOSIG
cycle: 3

Station Type Date Time Source
FAMM TAF 2021/06/04 04:45 UTC NOAA

TAF TAF FAMM 040440Z 0404/0418 VRB03KT CAVOK TX20/0412Z TN02/0405Z
FM040800 05008KT 9999 SCT040
BECMG 0410/0412 VRB03KT CAVOK

Example: see airport list